Flight Track Log - Related Links

Times and Time Zones

All times are in EDT time to prevent confusion due to time zone crossing. See the ASQ6041 flight status page for this flight to view local times or setup timezone preferences in your user account.

Time Position Orientation Groundspeed Altitude Reporting Facility
EDT Latitude Longitude Course Direction KTS MPH feet Rate Location/Type
Sat 12:54:40 PM 39.8833 -104.6000 85° East 179 206 6,400  Level Denver TRACON
Sat 12:55:40 PM 39.8833 -104.5333 90° East 237 273 7,800 1,524 Climbing Denver TRACON
Sat 12:56:46 PM 39.8667 -104.4167 101° East 281 323 9,600 1,619 Climbing Denver TRACON
Sat 12:57:00 PM 39.9252 -104.2747 90° East  Level Estimated
Sat 12:57:46 PM 39.8667 -104.3000 90° East 300 345 11,200  Level Denver TRACON
Sat 12:58:00 PM 39.9461 -104.1416 90° East  Level Estimated
Sat 12:59:00 PM 39.9668 -104.0086 72° East  Level Estimated
Sat 12:59:13 PM 39.8728 -104.1464 87° East 328 377 13,400  Level Denver Center
Sat 01:00:00 PM 39.9871 -103.8770 85° East  Level Estimated
Sat 01:00:15 PM 39.8714 -104.0067 91° East 359 413 14,800  Level Denver Center
Sat 01:01:17 PM 39.8725 -103.8719 89° East 376 433 16,200 1,392 Climbing Denver Center
Sat 01:02:20 PM 39.8822 -103.7339 85° East 379 436 17,700 1,536 Climbing Denver Center
Sat 01:03:22 PM 39.9003 -103.5867 81° East 368 423 19,400 1,742 Climbing Denver Center
Sat 01:04:24 PM 39.9158 -103.4503 81° East 379 436 21,300 1,645 Climbing Denver Center
Sat 01:05:26 PM 39.9303 -103.3178 82° East 374 430 22,800 1,500 Climbing Denver Center
Sat 01:06:28 PM 39.9453 -103.1794 82° East 384 442 24,400 1,548 Climbing Denver Center
Sat 01:07:30 PM 39.9603 -103.0436 82° East 382 440 26,000 1,645 Climbing Denver Center
Sat 01:08:32 PM 39.9758 -102.9097 81° East 376 433 27,800 1,984 Climbing Denver Center
Sat 01:09:34 PM 39.9931 -102.7500 82° East 372 428 30,100 1,984 Climbing Denver Center
Sat 01:10:36 PM 40.0047 -102.6250 83° East 360 414 31,900 1,548 Climbing Denver Center
Sat 01:11:38 PM 40.0183 -102.5031 82° East 356 410 33,300 1,452 Climbing Denver Center
Sat 01:12:40 PM 40.0333 -102.3619 82° East 353 406 34,900 823 Climbing Denver Center
Sat 01:13:42 PM 40.0467 -102.2378 82° East 360 414 35,000 48 Climbing Denver Center
Sat 01:14:44 PM 40.0631 -102.0769 82° East 400 460 35,000  Level Denver Center
Sat 01:15:46 PM 40.0781 -101.9264 83° East 433 498 35,000  Level Denver Center
Sat 01:16:48 PM 40.0961 -101.7458 82° East 449 517 35,000  Level Denver Center
Sat 01:17:50 PM 40.1117 -101.5881 83° East 458 527 35,000  Level Denver Center
Sat 01:18:52 PM 40.1275 -101.4061 83° East 454 522 35,000  Level Denver Center
Sat 01:19:54 PM 40.1431 -101.2511 82° East 452 520 35,000  Level Denver Center
Sat 01:20:57 PM 40.1592 -101.0722 83° East 448 516 35,000  Level Denver Center
Sat 01:21:59 PM 40.1742 -100.9183 83° East 448 516 35,000  Level Denver Center
Sat 01:23:01 PM 40.1903 -100.7411 83° East 444 511 35,000  Level Denver Center
Sat 01:24:03 PM 40.2042 -100.5881 83° East 446 513 35,000  Level Denver Center
Sat 01:25:05 PM 40.2397 -100.4142 75° East 444 511 35,000  Level Denver Center
Sat 01:26:07 PM 40.2700 -100.2642 75° East 447 514 35,000  Level Denver Center
Sat 01:27:09 PM 40.3047 -100.0922 75° East 442 509 35,000  Level Denver Center
Sat 01:28:11 PM 40.3347 -99.9428 75° East 444 511 35,000  Level Denver Center
Sat 01:29:13 PM 40.3664 -99.7881 75° East 441 507 35,000 -531 Level Denver Center
Sat 01:30:04 PM 40.3961 -99.6356 76° East 439 505 34,000 -1,009 Descending Minneapolis Center
Sat 01:31:06 PM 40.4253 -99.4869 75° East 427 491 33,100 -484 Descending Minneapolis Center
Sat 01:32:08 PM 40.4556 -99.3317 76° East 434 499 33,000 -48 Descending Minneapolis Center
Sat 01:33:10 PM 40.4861 -99.1711 76° East 447 514 33,000  Level Minneapolis Center
Sat 01:34:12 PM 40.5108 -99.0400 76° East 457 526 33,000 -726 Level Minneapolis Center
Sat 01:35:14 PM 40.5469 -98.8469 76° East 458 527 31,500 -2,177 Descending Minneapolis Center
Sat 01:36:16 PM 40.5831 -98.6586 76° East 449 517 28,500 -2,613 Descending Minneapolis Center
Sat 01:37:18 PM 40.6131 -98.4967 76° East 455 524 26,100 -2,613 Descending Minneapolis Center
Sat 01:38:20 PM 40.6436 -98.3294 76° East 466 536 23,100 -2,710 Descending Minneapolis Center
Sat 01:39:22 PM 40.6728 -98.1728 76° East 453 521 20,500 -2,177 Descending Minneapolis Center
Sat 01:40:24 PM 40.6978 -98.0356 76° East 406 467 18,600 -1,951 Descending Minneapolis Center
Sat 01:41:25 PM 40.7164 -97.9317 77° East 379 436 16,500 -2,855 Descending Minneapolis Center
Sat 01:42:28 PM 40.7475 -97.7536 77° East 361 415 12,700 -2,640 Descending Minneapolis Center
Sat 01:43:30 PM 40.7706 -97.6269 76° East 357 411 11,000 -1,259 Descending Minneapolis Center
Sat 01:43:49 PM 40.7567 -97.5761 110° East 362 417 11,000  Level Minneapolis Center
Sat 01:44:31 PM 40.7889 -97.5183 54° Northeast 369 425 11,000  Level Minneapolis Center
Sat 01:44:55 PM 40.7842 -97.4225 94° East 369 425 11,000 -667 Level Minneapolis Center
Sat 01:45:34 PM 40.8036 -97.3639 66° East 328 377 10,300 -1,377 Descending Minneapolis Center
Sat 01:45:56 PM 40.7803 -97.3128 121° Southeast 298 343 9,600 -1,831 Descending Minneapolis Center
Sat 01:46:33 PM 40.7767 -97.2472 94° East 292 336 8,500 -1,692 Descending Minneapolis Center
Sat 01:46:35 PM 40.7942 -97.2528 346° North 308 354 8,500 -1,688 Level Minneapolis Center
Sat 01:47:37 PM 40.7839 -97.1450 97° East 300 345 6,700 -1,895 Descending Minneapolis Center
Sat 01:47:51 PM 40.7647 -97.1056 123° Southeast 293 337 6,100 -1,839 Descending Minneapolis Center
Sat 01:48:39 PM 40.7725 -97.0403 81° East 292 336 4,800 -1,855 Descending Minneapolis Center
Sat 01:48:46 PM 40.7572 -97.0072 121° Southeast 290 334 4,400 -1,676 Descending Minneapolis Center
Sat 01:49:47 PM 40.7469 -96.9011 97° East 282 325 2,900 -835 Descending Minneapolis Center
Sat 01:50:41 PM 40.7403 -96.8247 97° East 210 242 2,800 -107 Descending Minneapolis Center
Sat 01:50:43 PM 40.7533 -96.8314 339° North 239 275 2,800 -98 Level Minneapolis Center
Sat 01:51:42 PM 40.7575 -96.7625 85° East 190 219 2,700 -194 Descending Minneapolis Center
Sat 01:51:45 PM 40.7692 -96.7664 346° North 204 235 2,600 -738 Descending Minneapolis Center
Sat 01:52:47 PM 40.8183 -96.7597 North 186 214 1,900 -677 Descending Minneapolis Center

Login

Don't have an account? Register now (free) for customized features, flight alerts, and more!